sensor_id;sensor_type;location;lat;lon;timestamp;P1;durP1;ratioP1;P2;durP2;ratioP2
72895;SDS011;61036;53.224;6.554;2023-12-20T00:01:27;10.57;;;3.50;;
72895;SDS011;61036;53.224;6.554;2023-12-20T00:03:52;8.53;;;2.40;;
72895;SDS011;61036;53.224;6.554;2023-12-20T00:06:18;13.93;;;3.27;;
72895;SDS011;61036;53.224;6.554;2023-12-20T00:08:43;9.60;;;2.83;;
72895;SDS011;61036;53.224;6.554;2023-12-20T00:11:09;9.03;;;2.23;;
72895;SDS011;61036;53.224;6.554;2023-12-20T00:13:35;11.33;;;2.40;;
72895;SDS011;61036;53.224;6.554;2023-12-20T00:16:00;9.77;;;2.63;;
72895;SDS011;61036;53.224;6.554;2023-12-20T00:18:26;10.60;;;2.67;;
72895;SDS011;61036;53.224;6.554;2023-12-20T00:20:51;11.83;;;2.67;;
72895;SDS011;61036;53.224;6.554;2023-12-20T00:23:17;10.53;;;2.47;;
72895;SDS011;61036;53.224;6.554;2023-12-20T00:25:42;15.20;;;2.73;;
72895;SDS011;61036;53.224;6.554;2023-12-20T00:28:08;9.87;;;2.13;;
72895;SDS011;61036;53.224;6.554;2023-12-20T00:30:33;16.57;;;2.87;;
72895;SDS011;61036;53.224;6.554;2023-12-20T00:32:59;12.23;;;2.93;;
72895;SDS011;61036;53.224;6.554;2023-12-20T00:35:25;11.13;;;2.30;;
72895;SDS011;61036;53.224;6.554;2023-12-20T00:37:50;12.93;;;2.57;;
72895;SDS011;61036;53.224;6.554;2023-12-20T00:40:16;12.50;;;2.57;;
72895;SDS011;61036;53.224;6.554;2023-12-20T00:42:42;9.33;;;2.20;;
72895;SDS011;61036;53.224;6.554;2023-12-20T00:45:07;11.97;;;2.23;;
72895;SDS011;61036;53.224;6.554;2023-12-20T00:47:33;13.53;;;2.70;;
72895;SDS011;61036;53.224;6.554;2023-12-20T00:49:59;15.00;;;2.73;;
72895;SDS011;61036;53.224;6.554;2023-12-20T00:52:24;15.47;;;2.70;;
72895;SDS011;61036;53.224;6.554;2023-12-20T00:54:50;13.57;;;2.33;;
72895;SDS011;61036;53.224;6.554;2023-12-20T00:57:16;9.03;;;2.10;;
72895;SDS011;61036;53.224;6.554;2023-12-20T00:59:41;12.93;;;2.47;;
72895;SDS011;61036;53.224;6.554;2023-12-20T01:02:07;10.63;;;2.83;;
72895;SDS011;61036;53.224;6.554;2023-12-20T01:04:34;11.87;;;2.30;;
72895;SDS011;61036;53.224;6.554;2023-12-20T01:07:00;10.03;;;2.20;;
72895;SDS011;61036;53.224;6.554;2023-12-20T01:09:25;9.13;;;2.43;;
72895;SDS011;61036;53.224;6.554;2023-12-20T01:11:54;10.63;;;2.63;;
72895;SDS011;61036;53.224;6.554;2023-12-20T01:14:19;10.37;;;2.60;;
72895;SDS011;61036;53.224;6.554;2023-12-20T01:16:45;14.00;;;2.97;;
72895;SDS011;61036;53.224;6.554;2023-12-20T01:19:11;11.70;;;2.77;;
72895;SDS011;61036;53.224;6.554;2023-12-20T01:21:36;11.73;;;3.03;;
72895;SDS011;61036;53.224;6.554;2023-12-20T01:24:02;13.03;;;2.80;;
72895;SDS011;61036;53.224;6.554;2023-12-20T01:26:27;14.43;;;3.67;;
72895;SDS011;61036;53.224;6.554;2023-12-20T01:28:53;13.77;;;2.93;;
72895;SDS011;61036;53.224;6.554;2023-12-20T01:31:19;10.07;;;2.33;;
72895;SDS011;61036;53.224;6.554;2023-12-20T01:33:48;18.23;;;2.63;;
72895;SDS011;61036;53.224;6.554;2023-12-20T01:36:13;11.47;;;2.60;;
72895;SDS011;61036;53.224;6.554;2023-12-20T01:38:39;12.23;;;2.63;;
72895;SDS011;61036;53.224;6.554;2023-12-20T01:41:05;15.43;;;2.73;;
72895;SDS011;61036;53.224;6.554;2023-12-20T01:43:30;14.77;;;3.30;;
72895;SDS011;61036;53.224;6.554;2023-12-20T01:45:57;15.97;;;3.50;;
72895;SDS011;61036;53.224;6.554;2023-12-20T01:48:23;14.73;;;2.80;;
72895;SDS011;61036;53.224;6.554;2023-12-20T01:50:50;15.30;;;3.50;;
72895;SDS011;61036;53.224;6.554;2023-12-20T01:53:16;13.40;;;3.73;;
72895;SDS011;61036;53.224;6.554;2023-12-20T01:55:44;17.73;;;4.53;;
72895;SDS011;61036;53.224;6.554;2023-12-20T01:58:10;17.47;;;4.40;;
72895;SDS011;61036;53.224;6.554;2023-12-20T02:00:37;12.00;;;3.30;;
72895;SDS011;61036;53.224;6.554;2023-12-20T02:03:03;15.33;;;2.90;;
72895;SDS011;61036;53.224;6.554;2023-12-20T02:05:29;10.93;;;2.50;;
72895;SDS011;61036;53.224;6.554;2023-12-20T02:07:56;9.77;;;2.43;;
72895;SDS011;61036;53.224;6.554;2023-12-20T02:10:22;13.90;;;2.83;;
72895;SDS011;61036;53.224;6.554;2023-12-20T02:12:48;11.93;;;2.40;;
72895;SDS011;61036;53.224;6.554;2023-12-20T02:15:14;13.03;;;3.20;;
72895;SDS011;61036;53.224;6.554;2023-12-20T02:17:39;12.73;;;3.20;;
72895;SDS011;61036;53.224;6.554;2023-12-20T02:20:05;13.40;;;2.87;;
72895;SDS011;61036;53.224;6.554;2023-12-20T02:22:31;14.43;;;3.90;;
72895;SDS011;61036;53.224;6.554;2023-12-20T02:24:57;14.30;;;5.10;;
72895;SDS011;61036;53.224;6.554;2023-12-20T02:27:23;16.57;;;5.60;;
72895;SDS011;61036;53.224;6.554;2023-12-20T02:29:49;16.43;;;4.60;;
72895;SDS011;61036;53.224;6.554;2023-12-20T02:32:15;17.07;;;3.60;;
72895;SDS011;61036;53.224;6.554;2023-12-20T02:34:42;16.00;;;3.20;;
72895;SDS011;61036;53.224;6.554;2023-12-20T02:37:08;17.63;;;3.40;;
72895;SDS011;61036;53.224;6.554;2023-12-20T02:39:33;17.37;;;3.80;;
72895;SDS011;61036;53.224;6.554;2023-12-20T02:42:01;17.30;;;4.40;;
72895;SDS011;61036;53.224;6.554;2023-12-20T02:44:27;20.43;;;5.27;;
72895;SDS011;61036;53.224;6.554;2023-12-20T02:46:53;22.07;;;5.10;;
72895;SDS011;61036;53.224;6.554;2023-12-20T02:49:18;19.73;;;3.50;;
72895;SDS011;61036;53.224;6.554;2023-12-20T02:51:44;18.83;;;3.40;;
72895;SDS011;61036;53.224;6.554;2023-12-20T02:54:09;23.77;;;3.70;;
72895;SDS011;61036;53.224;6.554;2023-12-20T02:56:35;14.57;;;3.30;;
72895;SDS011;61036;53.224;6.554;2023-12-20T02:59:01;19.93;;;4.00;;
72895;SDS011;61036;53.224;6.554;2023-12-20T03:01:27;19.23;;;5.40;;
72895;SDS011;61036;53.224;6.554;2023-12-20T03:03:54;17.80;;;4.67;;
72895;SDS011;61036;53.224;6.554;2023-12-20T03:06:19;22.37;;;5.90;;
72895;SDS011;61036;53.224;6.554;2023-12-20T03:08:45;19.87;;;4.87;;
72895;SDS011;61036;53.224;6.554;2023-12-20T03:11:11;20.50;;;4.60;;
72895;SDS011;61036;53.224;6.554;2023-12-20T03:13:36;20.23;;;4.63;;
72895;SDS011;61036;53.224;6.554;2023-12-20T03:16:07;23.20;;;5.10;;
72895;SDS011;61036;53.224;6.554;2023-12-20T03:18:36;22.63;;;5.00;;
72895;SDS011;61036;53.224;6.554;2023-12-20T03:21:02;20.13;;;5.63;;
72895;SDS011;61036;53.224;6.554;2023-12-20T03:23:29;27.20;;;6.43;;
72895;SDS011;61036;53.224;6.554;2023-12-20T03:25:55;25.77;;;8.30;;
72895;SDS011;61036;53.224;6.554;2023-12-20T03:28:21;14.97;;;4.93;;
72895;SDS011;61036;53.224;6.554;2023-12-20T03:30:48;18.87;;;4.83;;
72895;SDS011;61036;53.224;6.554;2023-12-20T03:33:14;24.10;;;5.07;;
72895;SDS011;61036;53.224;6.554;2023-12-20T03:35:39;20.13;;;4.93;;
72895;SDS011;61036;53.224;6.554;2023-12-20T03:38:04;17.23;;;4.03;;
72895;SDS011;61036;53.224;6.554;2023-12-20T03:40:30;25.37;;;4.80;;
72895;SDS011;61036;53.224;6.554;2023-12-20T03:42:55;19.63;;;4.20;;
72895;SDS011;61036;53.224;6.554;2023-12-20T03:45:21;20.43;;;4.37;;
72895;SDS011;61036;53.224;6.554;2023-12-20T03:47:46;15.53;;;3.80;;
72895;SDS011;61036;53.224;6.554;2023-12-20T03:50:12;19.23;;;3.80;;
72895;SDS011;61036;53.224;6.554;2023-12-20T03:52:38;13.27;;;3.20;;
72895;SDS011;61036;53.224;6.554;2023-12-20T03:55:03;18.87;;;3.77;;
72895;SDS011;61036;53.224;6.554;2023-12-20T03:57:29;20.17;;;4.23;;
72895;SDS011;61036;53.224;6.554;2023-12-20T03:59:55;20.23;;;4.57;;
72895;SDS011;61036;53.224;6.554;2023-12-20T04:02:20;25.60;;;5.80;;
72895;SDS011;61036;53.224;6.554;2023-12-20T04:04:46;24.40;;;6.23;;
72895;SDS011;61036;53.224;6.554;2023-12-20T04:07:11;21.70;;;6.27;;
72895;SDS011;61036;53.224;6.554;2023-12-20T04:09:37;25.07;;;6.67;;
72895;SDS011;61036;53.224;6.554;2023-12-20T04:12:02;27.70;;;7.17;;
72895;SDS011;61036;53.224;6.554;2023-12-20T04:14:28;22.93;;;7.23;;
72895;SDS011;61036;53.224;6.554;2023-12-20T04:16:54;27.67;;;7.10;;
72895;SDS011;61036;53.224;6.554;2023-12-20T04:19:19;28.33;;;6.77;;
72895;SDS011;61036;53.224;6.554;2023-12-20T04:21:45;21.37;;;6.43;;
72895;SDS011;61036;53.224;6.554;2023-12-20T04:24:10;22.73;;;6.23;;
72895;SDS011;61036;53.224;6.554;2023-12-20T04:26:36;25.40;;;6.70;;
72895;SDS011;61036;53.224;6.554;2023-12-20T04:29:01;25.73;;;6.33;;
72895;SDS011;61036;53.224;6.554;2023-12-20T04:31:27;19.20;;;5.17;;
72895;SDS011;61036;53.224;6.554;2023-12-20T04:33:52;23.50;;;5.67;;
72895;SDS011;61036;53.224;6.554;2023-12-20T04:36:18;18.23;;;3.97;;
72895;SDS011;61036;53.224;6.554;2023-12-20T04:38:44;19.63;;;4.43;;
72895;SDS011;61036;53.224;6.554;2023-12-20T04:41:09;19.33;;;4.00;;
72895;SDS011;61036;53.224;6.554;2023-12-20T04:43:35;19.57;;;4.00;;
72895;SDS011;61036;53.224;6.554;2023-12-20T04:46:00;23.93;;;5.17;;
72895;SDS011;61036;53.224;6.554;2023-12-20T04:48:26;22.20;;;3.70;;
72895;SDS011;61036;53.224;6.554;2023-12-20T04:50:51;28.80;;;4.83;;
72895;SDS011;61036;53.224;6.554;2023-12-20T04:53:17;21.80;;;4.77;;
72895;SDS011;61036;53.224;6.554;2023-12-20T04:55:42;26.07;;;5.57;;
72895;SDS011;61036;53.224;6.554;2023-12-20T04:58:08;21.07;;;4.63;;
72895;SDS011;61036;53.224;6.554;2023-12-20T05:00:33;21.80;;;4.87;;
72895;SDS011;61036;53.224;6.554;2023-12-20T05:02:59;17.50;;;4.47;;
72895;SDS011;61036;53.224;6.554;2023-12-20T05:05:25;23.63;;;4.93;;
72895;SDS011;61036;53.224;6.554;2023-12-20T05:07:50;24.40;;;5.70;;
72895;SDS011;61036;53.224;6.554;2023-12-20T05:10:16;20.47;;;4.77;;
72895;SDS011;61036;53.224;6.554;2023-12-20T05:12:41;23.83;;;4.93;;
72895;SDS011;61036;53.224;6.554;2023-12-20T05:15:08;19.33;;;4.83;;
72895;SDS011;61036;53.224;6.554;2023-12-20T05:17:34;25.67;;;5.30;;
72895;SDS011;61036;53.224;6.554;2023-12-20T05:20:00;26.50;;;4.93;;
72895;SDS011;61036;53.224;6.554;2023-12-20T05:22:25;25.07;;;5.43;;
72895;SDS011;61036;53.224;6.554;2023-12-20T05:24:52;20.53;;;4.20;;
72895;SDS011;61036;53.224;6.554;2023-12-20T05:27:18;21.03;;;4.87;;
72895;SDS011;61036;53.224;6.554;2023-12-20T05:29:44;19.40;;;4.97;;
72895;SDS011;61036;53.224;6.554;2023-12-20T05:32:10;22.57;;;4.53;;
72895;SDS011;61036;53.224;6.554;2023-12-20T05:34:36;22.00;;;5.47;;
72895;SDS011;61036;53.224;6.554;2023-12-20T05:37:02;24.07;;;5.33;;
72895;SDS011;61036;53.224;6.554;2023-12-20T05:39:28;21.20;;;4.13;;
72895;SDS011;61036;53.224;6.554;2023-12-20T05:41:54;19.17;;;4.20;;
72895;SDS011;61036;53.224;6.554;2023-12-20T05:44:19;20.83;;;4.63;;
72895;SDS011;61036;53.224;6.554;2023-12-20T05:46:45;22.07;;;4.33;;
72895;SDS011;61036;53.224;6.554;2023-12-20T05:49:11;18.87;;;4.30;;
72895;SDS011;61036;53.224;6.554;2023-12-20T05:51:36;20.00;;;5.20;;
72895;SDS011;61036;53.224;6.554;2023-12-20T05:54:02;20.93;;;6.17;;
72895;SDS011;61036;53.224;6.554;2023-12-20T05:56:27;22.63;;;5.97;;
72895;SDS011;61036;53.224;6.554;2023-12-20T05:58:53;25.57;;;5.17;;
72895;SDS011;61036;53.224;6.554;2023-12-20T06:01:18;22.40;;;4.90;;
72895;SDS011;61036;53.224;6.554;2023-12-20T06:03:44;25.37;;;4.90;;
72895;SDS011;61036;53.224;6.554;2023-12-20T06:06:11;20.07;;;3.90;;
72895;SDS011;61036;53.224;6.554;2023-12-20T06:08:38;22.43;;;4.77;;
72895;SDS011;61036;53.224;6.554;2023-12-20T06:11:04;20.27;;;5.23;;
72895;SDS011;61036;53.224;6.554;2023-12-20T06:13:30;24.23;;;4.47;;
72895;SDS011;61036;53.224;6.554;2023-12-20T06:15:56;17.43;;;4.17;;
72895;SDS011;61036;53.224;6.554;2023-12-20T06:18:22;20.37;;;4.83;;
72895;SDS011;61036;53.224;6.554;2023-12-20T06:20:48;26.87;;;6.47;;
72895;SDS011;61036;53.224;6.554;2023-12-20T06:23:13;24.83;;;4.23;;
72895;SDS011;61036;53.224;6.554;2023-12-20T06:25:39;27.33;;;4.50;;
72895;SDS011;61036;53.224;6.554;2023-12-20T06:28:05;26.93;;;4.77;;
72895;SDS011;61036;53.224;6.554;2023-12-20T06:30:31;21.30;;;4.23;;
72895;SDS011;61036;53.224;6.554;2023-12-20T06:32:57;22.97;;;4.43;;
72895;SDS011;61036;53.224;6.554;2023-12-20T06:35:24;18.07;;;4.87;;
72895;SDS011;61036;53.224;6.554;2023-12-20T06:37:49;19.83;;;4.90;;
72895;SDS011;61036;53.224;6.554;2023-12-20T06:40:15;24.13;;;5.40;;
72895;SDS011;61036;53.224;6.554;2023-12-20T06:42:41;19.33;;;4.13;;
72895;SDS011;61036;53.224;6.554;2023-12-20T06:45:07;23.80;;;5.27;;
72895;SDS011;61036;53.224;6.554;2023-12-20T06:47:33;25.40;;;6.70;;
72895;SDS011;61036;53.224;6.554;2023-12-20T06:49:59;22.40;;;4.70;;
72895;SDS011;61036;53.224;6.554;2023-12-20T06:52:25;19.83;;;4.83;;
72895;SDS011;61036;53.224;6.554;2023-12-20T06:54:50;17.33;;;4.40;;
72895;SDS011;61036;53.224;6.554;2023-12-20T06:57:16;16.73;;;4.63;;
72895;SDS011;61036;53.224;6.554;2023-12-20T06:59:41;22.10;;;5.00;;
72895;SDS011;61036;53.224;6.554;2023-12-20T07:02:08;20.73;;;5.07;;
72895;SDS011;61036;53.224;6.554;2023-12-20T07:04:33;22.17;;;4.57;;
72895;SDS011;61036;53.224;6.554;2023-12-20T07:06:59;18.63;;;4.83;;
72895;SDS011;61036;53.224;6.554;2023-12-20T07:09:26;17.77;;;4.37;;
72895;SDS011;61036;53.224;6.554;2023-12-20T07:11:52;24.63;;;6.27;;
72895;SDS011;61036;53.224;6.554;2023-12-20T07:14:18;17.83;;;4.50;;
72895;SDS011;61036;53.224;6.554;2023-12-20T07:16:43;24.97;;;6.27;;
72895;SDS011;61036;53.224;6.554;2023-12-20T07:19:09;19.77;;;4.23;;
72895;SDS011;61036;53.224;6.554;2023-12-20T07:21:34;23.63;;;4.87;;
72895;SDS011;61036;53.224;6.554;2023-12-20T07:24:00;25.47;;;7.00;;
72895;SDS011;61036;53.224;6.554;2023-12-20T07:26:26;25.30;;;5.83;;
72895;SDS011;61036;53.224;6.554;2023-12-20T07:28:51;22.90;;;5.20;;
72895;SDS011;61036;53.224;6.554;2023-12-20T07:31:17;20.20;;;4.73;;
72895;SDS011;61036;53.224;6.554;2023-12-20T07:33:42;22.53;;;4.50;;
72895;SDS011;61036;53.224;6.554;2023-12-20T07:36:08;23.80;;;4.87;;
72895;SDS011;61036;53.224;6.554;2023-12-20T07:38:34;19.60;;;4.17;;
72895;SDS011;61036;53.224;6.554;2023-12-20T07:40:59;22.67;;;5.03;;
72895;SDS011;61036;53.224;6.554;2023-12-20T07:43:25;19.07;;;5.20;;
72895;SDS011;61036;53.224;6.554;2023-12-20T07:45:51;26.30;;;5.47;;
72895;SDS011;61036;53.224;6.554;2023-12-20T07:48:16;23.63;;;5.37;;
72895;SDS011;61036;53.224;6.554;2023-12-20T07:50:42;26.33;;;4.97;;
72895;SDS011;61036;53.224;6.554;2023-12-20T07:53:08;22.13;;;4.00;;
72895;SDS011;61036;53.224;6.554;2023-12-20T07:55:33;18.43;;;4.37;;
72895;SDS011;61036;53.224;6.554;2023-12-20T07:57:59;22.03;;;4.43;;
72895;SDS011;61036;53.224;6.554;2023-12-20T08:00:25;23.33;;;4.90;;
72895;SDS011;61036;53.224;6.554;2023-12-20T08:02:51;22.37;;;5.07;;
72895;SDS011;61036;53.224;6.554;2023-12-20T08:05:17;17.93;;;4.03;;
72895;SDS011;61036;53.224;6.554;2023-12-20T08:07:42;23.03;;;4.83;;
72895;SDS011;61036;53.224;6.554;2023-12-20T08:10:08;25.00;;;4.80;;
72895;SDS011;61036;53.224;6.554;2023-12-20T08:12:34;21.43;;;5.03;;
72895;SDS011;61036;53.224;6.554;2023-12-20T08:15:00;24.43;;;5.13;;
72895;SDS011;61036;53.224;6.554;2023-12-20T08:17:27;21.57;;;5.40;;
72895;SDS011;61036;53.224;6.554;2023-12-20T08:19:53;17.63;;;4.10;;
72895;SDS011;61036;53.224;6.554;2023-12-20T08:22:18;23.83;;;4.90;;
72895;SDS011;61036;53.224;6.554;2023-12-20T08:24:44;23.93;;;4.77;;
72895;SDS011;61036;53.224;6.554;2023-12-20T08:27:09;18.93;;;4.73;;
72895;SDS011;61036;53.224;6.554;2023-12-20T08:29:35;22.10;;;5.27;;
72895;SDS011;61036;53.224;6.554;2023-12-20T08:32:01;17.37;;;3.70;;
72895;SDS011;61036;53.224;6.554;2023-12-20T08:34:27;16.10;;;3.87;;
72895;SDS011;61036;53.224;6.554;2023-12-20T08:36:52;21.50;;;5.07;;
72895;SDS011;61036;53.224;6.554;2023-12-20T08:39:19;12.37;;;3.00;;
72895;SDS011;61036;53.224;6.554;2023-12-20T08:41:45;11.30;;;2.17;;
72895;SDS011;61036;53.224;6.554;2023-12-20T08:44:10;9.63;;;1.70;;
72895;SDS011;61036;53.224;6.554;2023-12-20T08:46:36;6.77;;;1.70;;
72895;SDS011;61036;53.224;6.554;2023-12-20T08:49:02;9.97;;;2.43;;
72895;SDS011;61036;53.224;6.554;2023-12-20T08:51:28;9.03;;;1.80;;
72895;SDS011;61036;53.224;6.554;2023-12-20T08:53:54;9.03;;;2.10;;
72895;SDS011;61036;53.224;6.554;2023-12-20T08:56:20;9.13;;;2.13;;
72895;SDS011;61036;53.224;6.554;2023-12-20T08:58:46;9.77;;;1.80;;
72895;SDS011;61036;53.224;6.554;2023-12-20T09:01:12;8.90;;;1.93;;
72895;SDS011;61036;53.224;6.554;2023-12-20T09:03:38;10.27;;;2.13;;
72895;SDS011;61036;53.224;6.554;2023-12-20T09:06:05;10.93;;;2.27;;
72895;SDS011;61036;53.224;6.554;2023-12-20T09:08:31;12.00;;;2.43;;
72895;SDS011;61036;53.224;6.554;2023-12-20T09:10:57;12.87;;;2.40;;
72895;SDS011;61036;53.224;6.554;2023-12-20T09:13:22;10.53;;;2.33;;
72895;SDS011;61036;53.224;6.554;2023-12-20T09:15:56;15.63;;;2.50;;
72895;SDS011;61036;53.224;6.554;2023-12-20T09:18:22;13.60;;;2.80;;
72895;SDS011;61036;53.224;6.554;2023-12-20T09:20:48;12.83;;;2.53;;
72895;SDS011;61036;53.224;6.554;2023-12-20T09:23:14;10.70;;;2.20;;
72895;SDS011;61036;53.224;6.554;2023-12-20T09:25:39;14.67;;;2.13;;
72895;SDS011;61036;53.224;6.554;2023-12-20T09:28:05;9.37;;;2.83;;
72895;SDS011;61036;53.224;6.554;2023-12-20T09:30:31;14.27;;;2.00;;
72895;SDS011;61036;53.224;6.554;2023-12-20T09:32:57;7.83;;;1.40;;
72895;SDS011;61036;53.224;6.554;2023-12-20T09:35:22;7.57;;;1.73;;
72895;SDS011;61036;53.224;6.554;2023-12-20T09:37:49;7.70;;;1.47;;
72895;SDS011;61036;53.224;6.554;2023-12-20T09:40:14;7.00;;;1.83;;
72895;SDS011;61036;53.224;6.554;2023-12-20T09:45:16;7.90;;;1.60;;
72895;SDS011;61036;53.224;6.554;2023-12-20T09:47:46;7.83;;;1.70;;
72895;SDS011;61036;53.224;6.554;2023-12-20T09:50:12;9.93;;;2.30;;
72895;SDS011;61036;53.224;6.554;2023-12-20T09:52:38;5.73;;;1.40;;
72895;SDS011;61036;53.224;6.554;2023-12-20T09:55:05;9.83;;;1.77;;
72895;SDS011;61036;53.224;6.554;2023-12-20T09:57:33;8.60;;;1.60;;
72895;SDS011;61036;53.224;6.554;2023-12-20T09:59:59;9.40;;;1.83;;
72895;SDS011;61036;53.224;6.554;2023-12-20T10:02:25;10.27;;;1.53;;
72895;SDS011;61036;53.224;6.554;2023-12-20T10:04:54;10.80;;;2.00;;
72895;SDS011;61036;53.224;6.554;2023-12-20T10:07:20;10.20;;;1.90;;
72895;SDS011;61036;53.224;6.554;2023-12-20T10:09:47;10.73;;;2.47;;
72895;SDS011;61036;53.224;6.554;2023-12-20T10:12:13;9.17;;;2.00;;
72895;SDS011;61036;53.224;6.554;2023-12-20T10:14:39;10.10;;;2.43;;
72895;SDS011;61036;53.224;6.554;2023-12-20T10:17:05;9.80;;;2.03;;
72895;SDS011;61036;53.224;6.554;2023-12-20T10:19:32;9.43;;;2.37;;
72895;SDS011;61036;53.224;6.554;2023-12-20T10:22:00;11.33;;;2.57;;
72895;SDS011;61036;53.224;6.554;2023-12-20T10:24:29;11.30;;;2.50;;
72895;SDS011;61036;53.224;6.554;2023-12-20T10:27:02;9.97;;;2.00;;
72895;SDS011;61036;53.224;6.554;2023-12-20T10:29:32;9.73;;;2.07;;
72895;SDS011;61036;53.224;6.554;2023-12-20T10:34:50;12.90;;;2.37;;
72895;SDS011;61036;53.224;6.554;2023-12-20T10:37:16;8.20;;;1.90;;
72895;SDS011;61036;53.224;6.554;2023-12-20T10:39:42;8.90;;;2.50;;
72895;SDS011;61036;53.224;6.554;2023-12-20T10:42:11;10.77;;;2.57;;
72895;SDS011;61036;53.224;6.554;2023-12-20T10:44:38;14.13;;;2.90;;
72895;SDS011;61036;53.224;6.554;2023-12-20T10:47:04;9.50;;;2.20;;
72895;SDS011;61036;53.224;6.554;2023-12-20T10:49:31;17.10;;;2.57;;
72895;SDS011;61036;53.224;6.554;2023-12-20T10:52:01;9.27;;;2.10;;
72895;SDS011;61036;53.224;6.554;2023-12-20T10:54:29;11.10;;;2.47;;
72895;SDS011;61036;53.224;6.554;2023-12-20T10:56:55;14.93;;;2.80;;
72895;SDS011;61036;53.224;6.554;2023-12-20T10:59:23;15.47;;;3.43;;
72895;SDS011;61036;53.224;6.554;2023-12-20T11:01:50;12.93;;;2.33;;
72895;SDS011;61036;53.224;6.554;2023-12-20T11:04:18;14.70;;;3.13;;
72895;SDS011;61036;53.224;6.554;2023-12-20T11:06:51;13.30;;;2.90;;
72895;SDS011;61036;53.224;6.554;2023-12-20T11:09:25;15.13;;;2.43;;
72895;SDS011;61036;53.224;6.554;2023-12-20T11:14:39;11.67;;;3.13;;
72895;SDS011;61036;53.224;6.554;2023-12-20T11:17:14;14.80;;;3.63;;
72895;SDS011;61036;53.224;6.554;2023-12-20T11:22:25;13.43;;;3.00;;
72895;SDS011;61036;53.224;6.554;2023-12-20T11:25:02;14.73;;;3.40;;
72895;SDS011;61036;53.224;6.554;2023-12-20T11:27:30;16.93;;;3.70;;
72895;SDS011;61036;53.224;6.554;2023-12-20T11:29:58;17.57;;;4.57;;
72895;SDS011;61036;53.224;6.554;2023-12-20T11:34:50;18.30;;;3.50;;
72895;SDS011;61036;53.224;6.554;2023-12-20T11:37:17;17.33;;;3.10;;
72895;SDS011;61036;53.224;6.554;2023-12-20T11:39:45;18.23;;;3.93;;
72895;SDS011;61036;53.224;6.554;2023-12-20T11:42:10;13.83;;;2.80;;
72895;SDS011;61036;53.224;6.554;2023-12-20T11:44:36;13.77;;;3.33;;
72895;SDS011;61036;53.224;6.554;2023-12-20T11:47:02;12.83;;;3.37;;
72895;SDS011;61036;53.224;6.554;2023-12-20T11:49:29;14.53;;;3.00;;
72895;SDS011;61036;53.224;6.554;2023-12-20T11:51:56;13.77;;;2.93;;
72895;SDS011;61036;53.224;6.554;2023-12-20T11:54:22;17.73;;;3.03;;
72895;SDS011;61036;53.224;6.554;2023-12-20T11:56:48;14.20;;;2.87;;
72895;SDS011;61036;53.224;6.554;2023-12-20T11:59:14;16.13;;;3.63;;
72895;SDS011;61036;53.224;6.554;2023-12-20T12:01:40;17.87;;;3.87;;
72895;SDS011;61036;53.224;6.554;2023-12-20T12:04:14;16.43;;;3.30;;
72895;SDS011;61036;53.224;6.554;2023-12-20T12:06:40;13.63;;;2.80;;
72895;SDS011;61036;53.224;6.554;2023-12-20T12:09:06;14.53;;;3.80;;
72895;SDS011;61036;53.224;6.554;2023-12-20T12:11:32;17.87;;;6.30;;
72895;SDS011;61036;53.224;6.554;2023-12-20T12:13:58;16.40;;;3.30;;
72895;SDS011;61036;53.224;6.554;2023-12-20T12:16:24;11.27;;;3.33;;
72895;SDS011;61036;53.224;6.554;2023-12-20T12:18:59;14.33;;;3.40;;
72895;SDS011;61036;53.224;6.554;2023-12-20T12:21:25;11.30;;;2.80;;
72895;SDS011;61036;53.224;6.554;2023-12-20T12:23:51;11.50;;;2.80;;
72895;SDS011;61036;53.224;6.554;2023-12-20T12:26:18;10.20;;;2.90;;
72895;SDS011;61036;53.224;6.554;2023-12-20T12:28:44;15.13;;;4.00;;
72895;SDS011;61036;53.224;6.554;2023-12-20T12:31:13;10.63;;;3.13;;
72895;SDS011;61036;53.224;6.554;2023-12-20T12:33:42;12.50;;;3.00;;
72895;SDS011;61036;53.224;6.554;2023-12-20T12:36:09;13.37;;;3.13;;
72895;SDS011;61036;53.224;6.554;2023-12-20T12:38:36;12.90;;;2.83;;
72895;SDS011;61036;53.224;6.554;2023-12-20T12:41:02;13.07;;;3.07;;
72895;SDS011;61036;53.224;6.554;2023-12-20T12:43:27;13.03;;;3.47;;
72895;SDS011;61036;53.224;6.554;2023-12-20T12:45:53;14.13;;;3.10;;
72895;SDS011;61036;53.224;6.554;2023-12-20T12:48:19;15.00;;;3.03;;
72895;SDS011;61036;53.224;6.554;2023-12-20T12:50:47;15.23;;;3.07;;
72895;SDS011;61036;53.224;6.554;2023-12-20T12:53:13;14.63;;;2.50;;
72895;SDS011;61036;53.224;6.554;2023-12-20T12:55:38;16.33;;;2.70;;
72895;SDS011;61036;53.224;6.554;2023-12-20T12:58:04;10.77;;;2.83;;
72895;SDS011;61036;53.224;6.554;2023-12-20T13:00:30;14.60;;;2.77;;
72895;SDS011;61036;53.224;6.554;2023-12-20T13:02:55;9.53;;;2.27;;
72895;SDS011;61036;53.224;6.554;2023-12-20T13:05:21;9.43;;;2.67;;
72895;SDS011;61036;53.224;6.554;2023-12-20T13:07:47;19.07;;;4.10;;
72895;SDS011;61036;53.224;6.554;2023-12-20T13:10:13;11.13;;;2.80;;
72895;SDS011;61036;53.224;6.554;2023-12-20T13:12:41;14.90;;;3.20;;
72895;SDS011;61036;53.224;6.554;2023-12-20T13:15:07;14.00;;;3.43;;
72895;SDS011;61036;53.224;6.554;2023-12-20T13:17:34;14.93;;;4.20;;
72895;SDS011;61036;53.224;6.554;2023-12-20T13:20:00;14.97;;;3.83;;
72895;SDS011;61036;53.224;6.554;2023-12-20T13:22:25;17.10;;;4.50;;
72895;SDS011;61036;53.224;6.554;2023-12-20T13:24:51;20.33;;;5.07;;
72895;SDS011;61036;53.224;6.554;2023-12-20T13:27:16;13.47;;;3.90;;
72895;SDS011;61036;53.224;6.554;2023-12-20T13:29:42;19.47;;;4.90;;
72895;SDS011;61036;53.224;6.554;2023-12-20T13:32:08;17.43;;;4.77;;
72895;SDS011;61036;53.224;6.554;2023-12-20T13:34:34;14.23;;;4.50;;
72895;SDS011;61036;53.224;6.554;2023-12-20T13:36:59;14.13;;;4.20;;
72895;SDS011;61036;53.224;6.554;2023-12-20T13:39:25;20.97;;;4.13;;
72895;SDS011;61036;53.224;6.554;2023-12-20T13:41:50;9.37;;;2.40;;
72895;SDS011;61036;53.224;6.554;2023-12-20T13:44:16;11.00;;;2.60;;
72895;SDS011;61036;53.224;6.554;2023-12-20T13:46:42;12.10;;;2.47;;
72895;SDS011;61036;53.224;6.554;2023-12-20T13:49:07;10.77;;;2.57;;
72895;SDS011;61036;53.224;6.554;2023-12-20T13:51:33;11.00;;;2.30;;
72895;SDS011;61036;53.224;6.554;2023-12-20T13:53:58;11.57;;;2.60;;
72895;SDS011;61036;53.224;6.554;2023-12-20T13:56:25;9.70;;;2.40;;
72895;SDS011;61036;53.224;6.554;2023-12-20T13:58:51;10.40;;;2.20;;
72895;SDS011;61036;53.224;6.554;2023-12-20T14:01:16;13.13;;;2.60;;
72895;SDS011;61036;53.224;6.554;2023-12-20T14:03:42;11.77;;;2.20;;
72895;SDS011;61036;53.224;6.554;2023-12-20T14:06:08;8.27;;;2.17;;
72895;SDS011;61036;53.224;6.554;2023-12-20T14:08:33;10.10;;;2.20;;
72895;SDS011;61036;53.224;6.554;2023-12-20T14:10:59;7.80;;;2.13;;
72895;SDS011;61036;53.224;6.554;2023-12-20T14:13:26;11.80;;;3.43;;
72895;SDS011;61036;53.224;6.554;2023-12-20T14:15:52;12.70;;;3.60;;
72895;SDS011;61036;53.224;6.554;2023-12-20T14:18:19;9.10;;;3.13;;
72895;SDS011;61036;53.224;6.554;2023-12-20T14:20:45;10.30;;;2.90;;
72895;SDS011;61036;53.224;6.554;2023-12-20T14:23:12;9.87;;;2.47;;
72895;SDS011;61036;53.224;6.554;2023-12-20T14:25:41;9.67;;;2.90;;
72895;SDS011;61036;53.224;6.554;2023-12-20T14:28:07;8.40;;;2.87;;
72895;SDS011;61036;53.224;6.554;2023-12-20T14:30:32;11.53;;;2.27;;
72895;SDS011;61036;53.224;6.554;2023-12-20T14:32:58;8.97;;;2.00;;
72895;SDS011;61036;53.224;6.554;2023-12-20T14:35:24;7.93;;;1.80;;
72895;SDS011;61036;53.224;6.554;2023-12-20T14:37:50;6.77;;;1.97;;
72895;SDS011;61036;53.224;6.554;2023-12-20T14:40:15;12.20;;;3.63;;
72895;SDS011;61036;53.224;6.554;2023-12-20T14:42:42;7.77;;;1.73;;